Time;durP1;ratioP1;P1;durP2;ratioP2;P2;SDS_P1;SDS_P2;PMS_P1;PMS_P2;Temp;Humidity;BMP_temperature;BMP_pressure;BME280_temperature;BME280_humidity;BME280_pressure;Samples;Min_cycle;Max_cycle;Signal;HPM_P1;HPM_P2
2021/07/04 00:01:07;;;;;;;12.02;7.63;;;;;;;;;;5025290;28;20021;-76
2021/07/04 00:03:32;;;;;;;12.07;7.90;;;;;;;;;;5038559;28;20511;-77
2021/07/04 00:05:57;;;;;;;10.70;7.35;;;;;;;;;;5029653;28;20056;-77
2021/07/04 00:08:23;;;;;;;11.05;7.28;;;;;;;;;;5035612;28;20075;-76
2021/07/04 00:10:58;;;;;;;8.85;6.88;;;;;;;;;;5028701;28;20029;-77
2021/07/04 00:13:23;;;;;;;12.20;7.82;;;;;;;;;;5027188;28;20586;-77
2021/07/04 00:15:48;;;;;;;12.75;8.15;;;;;;;;;;5028653;28;20030;-76
2021/07/04 00:18:18;;;;;;;11.50;9.18;;;;;;;;;;5028543;28;20063;-76
2021/07/04 00:20:43;;;;;;;13.02;7.63;;;;;;;;;;5027787;28;20051;-76
2021/07/04 00:23:09;;;;;;;10.90;8.02;;;;;;;;;;5034128;28;20044;-77
2021/07/04 00:25:35;;;;;;;11.93;8.35;;;;;;;;;;5024096;28;20074;-75
2021/07/04 00:28:00;;;;;;;13.02;8.07;;;;;;;;;;5028358;28;20055;-76
2021/07/04 00:30:25;;;;;;;11.48;8.35;;;;;;;;;;5032858;28;20022;-76
2021/07/04 00:32:51;;;;;;;12.32;9.13;;;;;;;;;;5033525;28;20029;-76
2021/07/04 00:35:17;;;;;;;12.52;9.27;;;;;;;;;;5029038;28;20018;-75
2021/07/04 00:37:43;;;;;;;9.52;7.97;;;;;;;;;;5031767;28;20115;-77
2021/07/04 00:40:09;;;;;;;10.80;8.10;;;;;;;;;;5042230;28;20571;-76
2021/07/04 00:42:35;;;;;;;10.77;7.57;;;;;;;;;;5040282;28;20072;-77
2021/07/04 00:45:00;;;;;;;10.88;8.25;;;;;;;;;;5030654;28;20037;-76
2021/07/04 00:47:26;;;;;;;13.07;8.45;;;;;;;;;;5038140;28;20061;-75
2021/07/04 00:49:51;;;;;;;12.82;7.97;;;;;;;;;;5027577;28;20112;-75
2021/07/04 00:52:19;;;;;;;10.35;7.47;;;;;;;;;;5040602;28;20044;-76
2021/07/04 00:54:45;;;;;;;11.05;7.93;;;;;;;;;;5024319;28;20029;-75
2021/07/04 00:57:10;;;;;;;10.45;7.90;;;;;;;;;;5032238;28;20017;-77
2021/07/04 00:59:35;;;;;;;10.30;7.18;;;;;;;;;;5035590;28;20033;-75
2021/07/04 01:02:00;;;;;;;9.38;6.75;;;;;;;;;;5029864;28;20091;-76
2021/07/04 01:04:26;;;;;;;12.18;7.35;;;;;;;;;;5034810;28;20025;-75
2021/07/04 01:06:52;;;;;;;10.02;7.40;;;;;;;;;;5028358;28;20028;-76
2021/07/04 01:09:17;;;;;;;10.90;7.97;;;;;;;;;;5027233;28;20100;-76
2021/07/04 01:11:42;;;;;;;10.75;7.50;;;;;;;;;;5032058;28;20799;-75
2021/07/04 01:14:07;;;;;;;11.43;7.57;;;;;;;;;;5034007;28;20135;-76
2021/07/04 01:16:33;;;;;;;9.48;7.05;;;;;;;;;;5039588;28;20032;-76
2021/07/04 01:18:58;;;;;;;9.45;7.28;;;;;;;;;;5033582;28;20439;-76
2021/07/04 01:21:24;;;;;;;9.32;6.68;;;;;;;;;;5029824;28;20177;-76
2021/07/04 01:23:49;;;;;;;10.02;6.00;;;;;;;;;;5041665;28;20391;-76
2021/07/04 01:26:15;;;;;;;9.85;6.80;;;;;;;;;;5035980;28;20108;-75
2021/07/04 01:28:40;;;;;;;8.73;6.10;;;;;;;;;;5028874;28;20029;-75
2021/07/04 01:31:06;;;;;;;8.82;6.80;;;;;;;;;;5038076;28;20044;-76
2021/07/04 01:33:31;;;;;;;9.70;6.95;;;;;;;;;;5031519;28;20083;-75
2021/07/04 01:35:56;;;;;;;10.23;6.93;;;;;;;;;;5047982;28;20048;-75
2021/07/04 01:38:21;;;;;;;9.27;6.78;;;;;;;;;;5028571;28;20057;-76
2021/07/04 01:40:47;;;;;;;9.07;7.03;;;;;;;;;;5032521;28;20021;-76
2021/07/04 01:43:12;;;;;;;8.50;6.75;;;;;;;;;;5038680;28;20037;-76
2021/07/04 01:45:38;;;;;;;8.85;6.72;;;;;;;;;;5029968;28;20029;-75
2021/07/04 01:48:03;;;;;;;9.48;6.63;;;;;;;;;;5038105;28;20753;-76
2021/07/04 01:50:31;;;;;;;9.10;6.63;;;;;;;;;;5029045;28;20048;-76
2021/07/04 01:52:56;;;;;;;8.75;6.55;;;;;;;;;;5037933;28;20037;-76
2021/07/04 01:55:21;;;;;;;8.75;6.65;;;;;;;;;;5031611;28;21596;-76
2021/07/04 01:57:47;;;;;;;9.55;7.15;;;;;;;;;;5027641;28;20195;-77
2021/07/04 02:00:18;;;;;;;8.90;5.53;;;;;;;;;;5039121;28;20641;-78
2021/07/04 02:02:44;;;;;;;8.32;5.55;;;;;;;;;;5019953;28;20036;-76
2021/07/04 02:05:10;;;;;;;7.82;5.63;;;;;;;;;;5036518;28;20476;-76
2021/07/04 02:07:35;;;;;;;8.10;5.43;;;;;;;;;;5027128;28;20036;-76
2021/07/04 02:10:00;;;;;;;8.15;5.90;;;;;;;;;;5038864;28;20032;-75
2021/07/04 02:12:26;;;;;;;8.80;6.93;;;;;;;;;;5036146;28;20037;-76
2021/07/04 02:14:51;;;;;;;9.23;6.82;;;;;;;;;;5031788;28;20036;-74
2021/07/04 02:17:16;;;;;;;9.18;7.13;;;;;;;;;;5026761;28;20052;-77
2021/07/04 02:19:42;;;;;;;9.38;6.43;;;;;;;;;;5031412;28;20113;-79
2021/07/04 02:22:08;;;;;;;10.63;7.22;;;;;;;;;;5041149;28;20021;-80
2021/07/04 02:24:34;;;;;;;9.63;7.25;;;;;;;;;;5029568;28;20034;-77
2021/07/04 02:26:59;;;;;;;11.18;7.57;;;;;;;;;;5028530;28;20021;-73
2021/07/04 02:29:24;;;;;;;9.48;6.80;;;;;;;;;;5029677;28;20021;-74
2021/07/04 02:31:50;;;;;;;11.07;7.47;;;;;;;;;;5042660;28;20072;-73
2021/07/04 02:34:15;;;;;;;10.25;7.75;;;;;;;;;;5031000;28;20369;-74
2021/07/04 02:36:40;;;;;;;9.13;6.55;;;;;;;;;;5035297;28;20029;-74
2021/07/04 02:39:06;;;;;;;11.52;7.30;;;;;;;;;;5030718;28;20013;-73
2021/07/04 02:41:32;;;;;;;10.77;6.70;;;;;;;;;;5031713;28;20049;-76
2021/07/04 02:43:57;;;;;;;7.90;6.95;;;;;;;;;;5027521;28;20380;-77
2021/07/04 02:46:22;;;;;;;11.17;7.47;;;;;;;;;;5029811;28;20030;-75
2021/07/04 02:48:47;;;;;;;9.73;7.23;;;;;;;;;;5030596;28;20283;-76
2021/07/04 02:51:12;;;;;;;11.80;7.57;;;;;;;;;;5034827;28;20853;-77
2021/07/04 02:53:37;;;;;;;9.23;6.68;;;;;;;;;;5035700;28;20033;-75
2021/07/04 02:56:03;;;;;;;10.93;7.17;;;;;;;;;;5044697;28;20021;-76
2021/07/04 02:58:28;;;;;;;9.77;7.22;;;;;;;;;;5037086;28;20334;-76
2021/07/04 03:00:53;;;;;;;10.73;7.45;;;;;;;;;;5031282;28;20040;-76
2021/07/04 03:03:18;;;;;;;11.33;7.77;;;;;;;;;;5031184;28;20105;-76
2021/07/04 03:05:43;;;;;;;8.98;7.10;;;;;;;;;;5030733;28;20271;-75
2021/07/04 03:08:09;;;;;;;10.57;8.15;;;;;;;;;;5030797;28;20013;-77
2021/07/04 03:10:34;;;;;;;10.27;7.80;;;;;;;;;;5029822;28;20017;-75
2021/07/04 03:12:59;;;;;;;10.85;7.63;;;;;;;;;;5040432;28;20055;-75
2021/07/04 03:15:25;;;;;;;9.90;7.47;;;;;;;;;;5030173;28;20024;-79
2021/07/04 03:17:51;;;;;;;9.85;7.22;;;;;;;;;;5030285;28;20033;-75
2021/07/04 03:20:16;;;;;;;10.43;7.68;;;;;;;;;;5030523;28;20028;-75
2021/07/04 03:22:42;;;;;;;10.50;8.13;;;;;;;;;;5030306;28;20025;-75
2021/07/04 03:25:08;;;;;;;10.07;7.88;;;;;;;;;;5030735;28;20096;-74
2021/07/04 03:27:34;;;;;;;9.80;7.30;;;;;;;;;;5036269;28;20112;-76
2021/07/04 03:29:59;;;;;;;10.95;7.50;;;;;;;;;;5032620;28;20473;-75
2021/07/04 03:32:24;;;;;;;10.77;7.40;;;;;;;;;;5043186;28;20469;-75
2021/07/04 03:34:50;;;;;;;9.93;7.22;;;;;;;;;;5041767;28;20017;-75
2021/07/04 03:37:15;;;;;;;9.20;7.63;;;;;;;;;;5036496;28;20550;-76
2021/07/04 03:39:40;;;;;;;11.00;7.80;;;;;;;;;;5038005;28;20022;-76
2021/07/04 03:42:06;;;;;;;8.87;7.27;;;;;;;;;;5034755;28;20157;-75
2021/07/04 03:44:31;;;;;;;10.55;7.65;;;;;;;;;;5035537;28;20327;-73
2021/07/04 03:46:56;;;;;;;10.40;7.20;;;;;;;;;;5028352;28;20076;-77
2021/07/04 03:49:21;;;;;;;8.70;6.90;;;;;;;;;;5025526;28;20052;-77
2021/07/04 03:51:46;;;;;;;10.70;7.20;;;;;;;;;;5035232;28;20041;-74
2021/07/04 03:54:11;;;;;;;10.25;8.13;;;;;;;;;;5029158;28;20276;-74
2021/07/04 03:56:37;;;;;;;10.00;7.28;;;;;;;;;;5031449;28;20477;-74
2021/07/04 03:59:02;;;;;;;9.43;7.28;;;;;;;;;;5030436;28;20052;-74
2021/07/04 04:01:27;;;;;;;9.82;7.10;;;;;;;;;;5028765;28;20021;-75
2021/07/04 04:03:52;;;;;;;10.00;6.90;;;;;;;;;;5044338;28;20035;-74
2021/07/04 04:06:18;;;;;;;8.82;7.00;;;;;;;;;;5041688;28;20021;-75
2021/07/04 04:08:44;;;;;;;10.13;7.05;;;;;;;;;;5024864;28;20143;-75
2021/07/04 04:11:10;;;;;;;8.15;6.80;;;;;;;;;;5042480;28;20067;-75
2021/07/04 04:13:36;;;;;;;10.10;7.43;;;;;;;;;;5029722;28;20060;-75
2021/07/04 04:16:01;;;;;;;9.25;7.05;;;;;;;;;;5034187;28;20764;-76
2021/07/04 04:18:26;;;;;;;10.50;7.88;;;;;;;;;;5032354;28;20498;-74
2021/07/04 04:20:52;;;;;;;9.70;7.38;;;;;;;;;;5031575;28;20480;-74
2021/07/04 04:23:17;;;;;;;10.98;7.13;;;;;;;;;;5032795;28;20064;-75
2021/07/04 04:25:42;;;;;;;10.07;7.80;;;;;;;;;;5039104;28;20766;-75
2021/07/04 04:28:09;;;;;;;11.05;7.65;;;;;;;;;;5034083;28;20287;-75
2021/07/04 04:30:35;;;;;;;9.35;7.38;;;;;;;;;;5034351;28;20053;-75
2021/07/04 04:33:00;;;;;;;10.82;7.57;;;;;;;;;;5031521;28;20377;-76
2021/07/04 04:35:25;;;;;;;9.65;6.22;;;;;;;;;;5032966;28;20047;-76
2021/07/04 04:37:51;;;;;;;9.50;7.07;;;;;;;;;;5042492;28;20013;-76
2021/07/04 04:40:16;;;;;;;9.43;7.25;;;;;;;;;;5029269;28;20017;-74
2021/07/04 04:42:41;;;;;;;9.23;7.43;;;;;;;;;;5026688;28;20045;-75
2021/07/04 04:45:07;;;;;;;9.97;6.70;;;;;;;;;;5035633;28;20109;-74
2021/07/04 04:47:32;;;;;;;10.50;6.93;;;;;;;;;;5029382;28;20272;-74
2021/07/04 04:49:57;;;;;;;9.57;7.18;;;;;;;;;;5030004;28;20092;-75
2021/07/04 04:52:22;;;;;;;10.23;7.33;;;;;;;;;;5027530;28;20488;-75
2021/07/04 04:54:47;;;;;;;9.70;7.15;;;;;;;;;;5026909;28;20322;-74
2021/07/04 04:57:13;;;;;;;10.53;7.73;;;;;;;;;;5048314;28;20025;-74
2021/07/04 04:59:38;;;;;;;10.52;7.82;;;;;;;;;;5022211;28;20279;-74
2021/07/04 05:02:04;;;;;;;10.30;7.72;;;;;;;;;;5026395;28;20045;-75
2021/07/04 05:04:29;;;;;;;8.50;6.32;;;;;;;;;;5031336;28;20034;-75
2021/07/04 05:06:54;;;;;;;9.18;6.70;;;;;;;;;;5028353;28;20124;-75
2021/07/04 05:09:20;;;;;;;11.52;6.68;;;;;;;;;;5027611;28;20029;-76
2021/07/04 05:11:45;;;;;;;9.40;6.68;;;;;;;;;;5029513;28;20389;-74
2021/07/04 05:14:11;;;;;;;8.98;6.70;;;;;;;;;;5033853;28;20035;-74
2021/07/04 05:16:37;;;;;;;8.43;5.90;;;;;;;;;;5032090;28;20033;-74
2021/07/04 05:19:05;;;;;;;9.30;6.65;;;;;;;;;;5028702;28;20409;-75
2021/07/04 05:21:31;;;;;;;9.95;7.10;;;;;;;;;;5028658;28;20025;-74
2021/07/04 05:23:56;;;;;;;9.23;7.20;;;;;;;;;;5027618;28;20033;-73
2021/07/04 05:26:21;;;;;;;9.07;6.67;;;;;;;;;;5031480;28;20025;-74
2021/07/04 05:28:47;;;;;;;9.10;6.68;;;;;;;;;;5030448;28;20306;-74
2021/07/04 05:31:12;;;;;;;8.30;6.20;;;;;;;;;;5031454;28;20079;-74
2021/07/04 05:33:37;;;;;;;7.53;5.85;;;;;;;;;;5034853;28;20030;-75
2021/07/04 05:36:03;;;;;;;8.40;6.10;;;;;;;;;;5024555;28;20044;-74
2021/07/04 05:38:33;;;;;;;7.53;6.03;;;;;;;;;;5033132;28;20288;-76
2021/07/04 05:40:59;;;;;;;7.53;5.88;;;;;;;;;;5029864;28;20477;-75
2021/07/04 05:43:24;;;;;;;8.52;5.43;;;;;;;;;;5032579;28;20026;-75
2021/07/04 05:45:50;;;;;;;7.80;5.57;;;;;;;;;;5027247;28;20029;-75
2021/07/04 05:48:15;;;;;;;6.78;5.28;;;;;;;;;;5021692;28;20473;-75
2021/07/04 05:50:40;;;;;;;7.82;5.75;;;;;;;;;;5027163;28;20025;-76
2021/07/04 05:53:06;;;;;;;7.90;5.30;;;;;;;;;;5027473;28;20037;-75
2021/07/04 05:55:31;;;;;;;7.72;5.43;;;;;;;;;;5036103;28;20036;-73
2021/07/04 05:57:56;;;;;;;6.38;4.72;;;;;;;;;;5033370;28;20021;-77
2021/07/04 06:00:21;;;;;;;9.37;6.17;;;;;;;;;;5030380;28;20543;-77
2021/07/04 06:02:46;;;;;;;8.00;5.88;;;;;;;;;;5022592;28;20289;-75
2021/07/04 06:05:17;;;;;;;9.20;6.15;;;;;;;;;;5026729;28;20032;-76
2021/07/04 06:07:42;;;;;;;9.77;6.00;;;;;;;;;;5028720;28;20030;-76
2021/07/04 06:10:07;;;;;;;7.00;5.63;;;;;;;;;;5031418;28;20028;-75
2021/07/04 06:12:33;;;;;;;7.55;5.65;;;;;;;;;;5036691;28;20790;-75
2021/07/04 06:14:58;;;;;;;6.63;5.25;;;;;;;;;;5041930;28;20024;-75
2021/07/04 06:17:23;;;;;;;7.32;5.35;;;;;;;;;;5040059;28;20025;-77
2021/07/04 06:19:48;;;;;;;7.68;5.25;;;;;;;;;;5034852;28;20029;-75
2021/07/04 06:22:13;;;;;;;7.28;5.40;;;;;;;;;;5048771;28;20055;-75
2021/07/04 06:24:39;;;;;;;6.28;4.97;;;;;;;;;;5039262;28;20109;-76
2021/07/04 06:27:04;;;;;;;6.55;5.05;;;;;;;;;;5046226;28;20020;-77
2021/07/04 06:29:29;;;;;;;5.97;4.60;;;;;;;;;;5034751;28;20084;-76
2021/07/04 06:31:54;;;;;;;6.28;4.57;;;;;;;;;;5033397;28;20065;-75
2021/07/04 06:34:19;;;;;;;6.17;4.73;;;;;;;;;;5030947;28;20041;-75
2021/07/04 06:36:45;;;;;;;8.33;4.87;;;;;;;;;;5044384;28;20272;-76
2021/07/04 06:39:10;;;;;;;7.35;5.40;;;;;;;;;;5044333;28;20363;-76
2021/07/04 06:41:35;;;;;;;7.80;5.03;;;;;;;;;;5032554;28;20057;-77
2021/07/04 06:44:00;;;;;;;7.23;5.13;;;;;;;;;;5039225;28;20279;-77
2021/07/04 06:46:26;;;;;;;6.20;4.75;;;;;;;;;;5036843;28;20378;-76
2021/07/04 06:48:51;;;;;;;6.40;4.75;;;;;;;;;;5032298;28;20048;-75
2021/07/04 06:51:16;;;;;;;6.43;4.77;;;;;;;;;;5031540;28;20032;-75
2021/07/04 06:53:41;;;;;;;6.72;4.45;;;;;;;;;;5031235;28;20288;-74
2021/07/04 06:56:06;;;;;;;6.45;4.68;;;;;;;;;;5032521;28;20072;-76
2021/07/04 06:58:32;;;;;;;6.00;4.20;;;;;;;;;;5040178;28;20048;-75
2021/07/04 07:00:57;;;;;;;5.95;4.32;;;;;;;;;;5037196;28;20021;-75
2021/07/04 07:03:22;;;;;;;7.97;4.75;;;;;;;;;;5028910;28;20064;-74
2021/07/04 07:05:47;;;;;;;6.10;4.13;;;;;;;;;;5040735;28;20105;-75
2021/07/04 07:08:12;;;;;;;6.88;4.50;;;;;;;;;;5037413;28;20037;-75
2021/07/04 07:10:38;;;;;;;6.45;4.47;;;;;;;;;;5035089;28;20559;-74
2021/07/04 07:13:03;;;;;;;5.82;4.38;;;;;;;;;;5030839;28;20076;-73
2021/07/04 07:15:29;;;;;;;5.97;4.47;;;;;;;;;;5037783;28;20031;-76
2021/07/04 07:17:54;;;;;;;7.35;3.78;;;;;;;;;;5030282;28;20028;-76
2021/07/04 07:20:19;;;;;;;7.13;4.50;;;;;;;;;;5039278;28;20041;-76
2021/07/04 07:22:44;;;;;;;5.88;4.45;;;;;;;;;;5031942;28;20280;-75
2021/07/04 07:25:10;;;;;;;5.07;3.88;;;;;;;;;;5039948;28;20021;-74
2021/07/04 07:27:35;;;;;;;5.68;3.70;;;;;;;;;;5043740;28;20444;-75
2021/07/04 07:30:01;;;;;;;4.65;3.80;;;;;;;;;;5048630;28;20040;-75
2021/07/04 07:32:27;;;;;;;6.18;3.75;;;;;;;;;;5050642;28;20072;-75
2021/07/04 07:34:52;;;;;;;4.63;3.13;;;;;;;;;;5043796;28;20025;-75
2021/07/04 07:37:18;;;;;;;5.93;3.30;;;;;;;;;;5048300;28;20021;-76
2021/07/04 07:39:43;;;;;;;4.38;3.10;;;;;;;;;;5037747;28;20017;-74
2021/07/04 07:42:09;;;;;;;3.58;2.53;;;;;;;;;;5033672;28;20055;-74
2021/07/04 07:44:34;;;;;;;7.15;2.53;;;;;;;;;;5036946;28;20029;-76
2021/07/04 07:46:59;;;;;;;4.47;2.43;;;;;;;;;;5046433;28;20040;-76
2021/07/04 07:49:24;;;;;;;4.13;2.80;;;;;;;;;;5032166;28;20409;-76
2021/07/04 07:51:50;;;;;;;3.30;2.42;;;;;;;;;;5034475;28;20299;-76
2021/07/04 07:54:18;;;;;;;3.55;2.65;;;;;;;;;;5036919;28;20033;-77
2021/07/04 07:56:43;;;;;;;3.90;2.90;;;;;;;;;;5026598;28;20026;-67
2021/07/04 07:59:09;;;;;;;3.80;2.72;;;;;;;;;;5029940;28;20021;-66
2021/07/04 08:01:34;;;;;;;3.47;2.50;;;;;;;;;;5032487;28;20025;-70
2021/07/04 08:03:59;;;;;;;4.35;2.97;;;;;;;;;;5029687;28;20284;-66
2021/07/04 08:06:24;;;;;;;3.88;2.97;;;;;;;;;;5027700;28;20067;-64
2021/07/04 08:08:50;;;;;;;4.40;2.70;;;;;;;;;;5031430;28;20026;-65
2021/07/04 08:11:15;;;;;;;3.88;2.42;;;;;;;;;;5036445;28;20260;-64
2021/07/04 08:13:40;;;;;;;4.22;2.88;;;;;;;;;;5032540;28;20037;-65
2021/07/04 08:16:05;;;;;;;3.43;2.50;;;;;;;;;;5027955;28;20041;-63
2021/07/04 08:18:30;;;;;;;3.53;2.35;;;;;;;;;;5042240;28;20374;-65
2021/07/04 08:20:55;;;;;;;4.32;3.10;;;;;;;;;;5039806;28;20040;-64
2021/07/04 08:23:21;;;;;;;4.50;3.30;;;;;;;;;;5030239;28;20112;-66
2021/07/04 08:25:46;;;;;;;4.93;2.90;;;;;;;;;;5033457;28;20018;-63
2021/07/04 08:28:11;;;;;;;3.58;2.55;;;;;;;;;;5032931;28;20051;-67
2021/07/04 08:30:37;;;;;;;4.55;2.88;;;;;;;;;;5040270;28;20013;-66
2021/07/04 08:33:03;;;;;;;4.95;3.75;;;;;;;;;;5039142;28;20036;-67
2021/07/04 08:35:28;;;;;;;3.88;2.97;;;;;;;;;;5031813;28;20067;-65
2021/07/04 08:37:53;;;;;;;3.97;2.57;;;;;;;;;;5040369;28;20812;-65
2021/07/04 08:40:18;;;;;;;3.53;2.50;;;;;;;;;;5032181;28;20348;-67
2021/07/04 08:42:43;;;;;;;4.15;2.78;;;;;;;;;;5035116;28;20041;-66
2021/07/04 08:45:09;;;;;;;5.20;2.85;;;;;;;;;;5027531;28;20098;-66
2021/07/04 08:47:34;;;;;;;3.83;2.90;;;;;;;;;;5029198;28;20456;-66
2021/07/04 08:49:59;;;;;;;4.40;2.92;;;;;;;;;;5028755;28;20009;-66
2021/07/04 08:52:25;;;;;;;3.53;2.55;;;;;;;;;;5029622;28;20037;-67
2021/07/04 08:54:50;;;;;;;4.35;2.67;;;;;;;;;;5021558;28;20052;-66
2021/07/04 08:57:16;;;;;;;3.95;2.67;;;;;;;;;;5025370;28;20061;-67
2021/07/04 08:59:42;;;;;;;3.60;2.60;;;;;;;;;;5036716;28;20471;-66
2021/07/04 09:02:10;;;;;;;3.70;2.47;;;;;;;;;;5031150;28;20026;-67
2021/07/04 09:04:36;;;;;;;3.85;2.63;;;;;;;;;;5033333;28;20032;-66
2021/07/04 09:07:01;;;;;;;3.25;2.30;;;;;;;;;;5036592;28;20033;-66
2021/07/04 09:09:27;;;;;;;4.13;2.22;;;;;;;;;;5020823;28;20362;-66
2021/07/04 09:11:54;;;;;;;3.15;2.38;;;;;;;;;;5022263;28;20039;-67
2021/07/04 09:14:26;;;;;;;2.72;1.85;;;;;;;;;;5027381;28;20053;-67
2021/07/04 09:16:51;;;;;;;2.88;2.08;;;;;;;;;;5032877;28;20023;-67
2021/07/04 09:19:16;;;;;;;2.87;2.00;;;;;;;;;;5031864;28;20607;-65
2021/07/04 09:21:42;;;;;;;2.72;1.88;;;;;;;;;;5038884;28;20294;-68
2021/07/04 09:24:23;;;;;;;3.80;2.00;;;;;;;;;;5041323;28;20027;-65
2021/07/04 09:26:49;;;;;;;2.30;1.58;;;;;;;;;;5038467;28;20029;-66
2021/07/04 09:29:14;;;;;;;1.98;1.40;;;;;;;;;;5028791;28;20028;-67
2021/07/04 09:31:43;;;;;;;2.78;1.80;;;;;;;;;;5038285;28;20025;-66
2021/07/04 09:34:09;;;;;;;4.15;2.10;;;;;;;;;;5045717;28;20036;-67
2021/07/04 09:36:35;;;;;;;2.50;1.73;;;;;;;;;;5029929;28;20040;-67
2021/07/04 09:39:00;;;;;;;2.47;1.80;;;;;;;;;;5035621;28;20029;-67
2021/07/04 09:41:26;;;;;;;2.05;1.40;;;;;;;;;;5030623;28;20048;-65
2021/07/04 09:43:51;;;;;;;2.25;1.30;;;;;;;;;;5027713;28;20425;-66
2021/07/04 09:46:17;;;;;;;3.90;1.70;;;;;;;;;;5028922;28;20029;-66
2021/07/04 09:48:46;;;;;;;2.40;1.70;;;;;;;;;;5030652;28;20268;-67
2021/07/04 09:51:22;;;;;;;1.80;1.42;;;;;;;;;;5032662;28;20750;-66
2021/07/04 09:53:51;;;;;;;2.80;1.77;;;;;;;;;;5034810;28;20043;-67
2021/07/04 09:56:26;;;;;;;3.25;1.60;;;;;;;;;;5025839;28;20014;-65
2021/07/04 09:58:55;;;;;;;2.60;1.40;;;;;;;;;;5025436;28;20021;-68
2021/07/04 10:01:34;;;;;;;2.72;1.60;;;;;;;;;;5029105;28;20025;-65
2021/07/04 10:03:59;;;;;;;2.65;1.60;;;;;;;;;;5029517;28;20411;-67
2021/07/04 10:06:25;;;;;;;2.75;1.40;;;;;;;;;;5027595;28;20025;-67
2021/07/04 10:08:50;;;;;;;3.17;1.50;;;;;;;;;;5030132;28;20384;-65
2021/07/04 10:11:15;;;;;;;2.60;1.50;;;;;;;;;;5026535;28;20036;-66
2021/07/04 10:13:42;;;;;;;1.80;1.48;;;;;;;;;;5032446;28;20302;-66
2021/07/04 10:16:09;;;;;;;3.38;1.60;;;;;;;;;;5029996;28;20095;-66
2021/07/04 10:18:35;;;;;;;2.47;1.52;;;;;;;;;;5032031;28;20076;-65
2021/07/04 10:21:00;;;;;;;2.95;1.92;;;;;;;;;;5036038;28;20036;-66
2021/07/04 10:23:26;;;;;;;3.30;1.60;;;;;;;;;;5028394;28;20017;-65
2021/07/04 10:25:52;;;;;;;2.03;1.42;;;;;;;;;;5035064;28;20021;-65
2021/07/04 10:28:38;;;;;;;3.28;1.80;;;;;;;;;;5029805;28;20013;-66
2021/07/04 10:31:04;;;;;;;2.42;1.33;;;;;;;;;;5024730;28;20033;-65
2021/07/04 10:33:34;;;;;;;3.35;1.88;;;;;;;;;;5033251;28;20049;-65
2021/07/04 10:36:05;;;;;;;2.00;1.58;;;;;;;;;;5032067;28;20025;-65
2021/07/04 10:38:38;;;;;;;2.13;1.55;;;;;;;;;;5033176;28;20044;-65
2021/07/04 10:41:07;;;;;;;1.92;1.40;;;;;;;;;;5028092;28;20052;-65
2021/07/04 10:43:51;;;;;;;2.13;1.60;;;;;;;;;;5028447;28;20469;-65
2021/07/04 10:46:16;;;;;;;2.70;1.60;;;;;;;;;;5035336;28;20029;-65
2021/07/04 10:48:51;;;;;;;2.22;1.55;;;;;;;;;;5039398;28;20722;-65
2021/07/04 10:51:17;;;;;;;2.75;1.73;;;;;;;;;;5024730;28;20018;-64
2021/07/04 10:53:46;;;;;;;2.85;1.67;;;;;;;;;;5031556;28;20187;-65
2021/07/04 10:56:30;;;;;;;4.18;1.52;;;;;;;;;;5045929;28;20095;-65
2021/07/04 10:59:03;;;;;;;3.28;1.80;;;;;;;;;;5037912;28;20059;-64
2021/07/04 11:01:46;;;;;;;4.05;1.80;;;;;;;;;;5030059;28;20359;-66
2021/07/04 11:04:27;;;;;;;2.47;1.52;;;;;;;;;;5034557;28;20025;-65
2021/07/04 11:06:53;;;;;;;2.17;1.73;;;;;;;;;;5025261;28;20040;-65
2021/07/04 11:09:18;;;;;;;2.42;1.73;;;;;;;;;;5030492;28;20032;-65
2021/07/04 11:11:43;;;;;;;1.90;1.60;;;;;;;;;;5032798;28;20429;-66
2021/07/04 11:14:09;;;;;;;2.30;1.60;;;;;;;;;;5028262;28;20345;-64
2021/07/04 11:16:34;;;;;;;2.60;1.95;;;;;;;;;;5025313;28;20261;-65
2021/07/04 11:19:08;;;;;;;3.17;1.63;;;;;;;;;;5028796;28;21136;-65
2021/07/04 11:21:49;;;;;;;2.03;1.50;;;;;;;;;;5023506;28;20117;-66
2021/07/04 11:24:19;;;;;;;2.03;1.60;;;;;;;;;;5025469;28;20036;-66
2021/07/04 11:26:44;;;;;;;;;;;;;;;;;;5041622;28;20013;-64
2021/07/04 11:29:10;;;;;;;2.33;1.60;;;;;;;;;;5032462;28;19928;-64
2021/07/04 11:31:35;;;;;;;4.85;1.50;;;;;;;;;;5033990;28;20028;-65
2021/07/04 11:34:04;;;;;;;2.35;1.70;;;;;;;;;;5034868;28;20025;-64
2021/07/04 11:36:30;;;;;;;7.43;1.90;;;;;;;;;;5029859;28;20076;-66
2021/07/04 11:38:57;;;;;;;3.78;2.00;;;;;;;;;;5038262;28;20032;-65
2021/07/04 11:41:30;;;;;;;2.30;1.70;;;;;;;;;;5047133;28;20459;-65
2021/07/04 11:44:01;;;;;;;2.63;1.58;;;;;;;;;;5038341;28;20776;-66
2021/07/04 11:46:26;;;;;;;;;;;;;;;;;;5031620;28;20026;-63
2021/07/04 11:48:53;;;;;;;2.80;1.73;;;;;;;;;;5038937;28;19909;-66
2021/07/04 11:51:30;;;;;;;3.20;1.70;;;;;;;;;;5037256;28;20076;-66
2021/07/04 11:53:58;;;;;;;4.20;2.10;;;;;;;;;;5027229;28;20619;-65
2021/07/04 11:56:23;;;;;;;2.45;1.77;;;;;;;;;;5032679;28;20549;-65
2021/07/04 11:58:48;;;;;;;3.63;2.20;;;;;;;;;;5045459;28;20017;-65
2021/07/04 12:01:18;;;;;;;3.15;2.00;;;;;;;;;;5030302;28;20376;-64
2021/07/04 12:03:47;;;;;;;2.55;1.83;;;;;;;;;;5034104;28;20067;-65
2021/07/04 12:06:12;;;;;;;4.60;2.00;;;;;;;;;;5029529;28;20030;-65
2021/07/04 12:08:54;;;;;;;3.63;1.88;;;;;;;;;;5035247;28;20087;-67
2021/07/04 12:11:19;;;;;;;3.63;1.95;;;;;;;;;;5033472;28;20109;-66
2021/07/04 12:13:46;;;;;;;2.17;1.63;;;;;;;;;;5030226;28;20457;-66
2021/07/04 12:16:11;;;;;;;3.95;2.22;;;;;;;;;;5028815;28;20105;-66
2021/07/04 12:18:37;;;;;;;2.38;1.70;;;;;;;;;;5028097;28;20052;-65
2021/07/04 12:21:04;;;;;;;3.00;1.80;;;;;;;;;;5029498;28;20030;-65
2021/07/04 12:23:30;;;;;;;3.22;2.13;;;;;;;;;;5038706;28;20492;-65
2021/07/04 12:25:55;;;;;;;3.92;2.40;;;;;;;;;;5014386;28;20049;-64
2021/07/04 12:28:22;;;;;;;3.67;2.28;;;;;;;;;;5035378;28;20021;-65
2021/07/04 12:30:50;;;;;;;5.18;2.83;;;;;;;;;;5034685;28;20032;-65
2021/07/04 12:33:26;;;;;;;16.73;9.35;;;;;;;;;;5039563;28;20034;-65
2021/07/04 12:35:55;;;;;;;5.30;2.60;;;;;;;;;;5037219;28;20064;-65
2021/07/04 12:38:26;;;;;;;8.17;3.97;;;;;;;;;;5035600;28;20091;-66
2021/07/04 12:41:18;;;;;;;7.35;3.47;;;;;;;;;;5037696;28;20072;-66
2021/07/04 12:43:45;;;;;;;5.57;3.38;;;;;;;;;;5030398;28;20037;-66
2021/07/04 12:46:28;;;;;;;5.05;3.05;;;;;;;;;;5028883;28;20037;-64
2021/07/04 12:48:54;;;;;;;6.15;4.10;;;;;;;;;;5028507;28;20488;-65
2021/07/04 12:51:24;;;;;;;4.50;2.80;;;;;;;;;;5042497;28;20035;-64
2021/07/04 12:53:49;;;;;;;3.65;2.30;;;;;;;;;;5039768;28;20051;-66
2021/07/04 12:56:19;;;;;;;3.80;1.90;;;;;;;;;;5035566;28;20033;-64
2021/07/04 12:58:57;;;;;;;9.02;5.10;;;;;;;;;;5036999;28;20967;-65
2021/07/04 13:01:24;;;;;;;5.43;3.40;;;;;;;;;;5028780;28;20030;-65
2021/07/04 13:03:56;;;;;;;7.63;3.22;;;;;;;;;;5034963;28;20025;-64
2021/07/04 13:06:30;;;;;;;5.70;3.55;;;;;;;;;;5031634;28;20761;-65
2021/07/04 13:08:56;;;;;;;7.75;4.90;;;;;;;;;;5029389;28;20044;-65
2021/07/04 13:11:21;;;;;;;3.13;1.95;;;;;;;;;;5035824;28;20029;-65
2021/07/04 13:14:00;;;;;;;5.63;3.23;;;;;;;;;;5032773;28;20476;-65
2021/07/04 13:16:26;;;;;;;3.30;2.37;;;;;;;;;;5035249;28;20296;-63
2021/07/04 13:18:51;;;;;;;3.17;2.40;;;;;;;;;;5034995;28;20079;-64
2021/07/04 13:21:26;;;;;;;3.17;2.22;;;;;;;;;;5031512;28;20031;-64
2021/07/04 13:24:11;;;;;;;5.38;3.90;;;;;;;;;;5033060;28;20018;-65
2021/07/04 13:26:36;;;;;;;3.20;2.05;;;;;;;;;;5024812;28;20092;-65
2021/07/04 13:29:12;;;;;;;6.47;3.70;;;;;;;;;;5032581;28;20026;-64
2021/07/04 13:31:37;;;;;;;3.55;2.70;;;;;;;;;;5025122;28;20063;-64
2021/07/04 13:34:18;;;;;;;3.80;2.80;;;;;;;;;;5029310;28;20041;-65
2021/07/04 13:36:55;;;;;;;4.15;2.47;;;;;;;;;;5040206;28;20270;-65
2021/07/04 13:39:22;;;;;;;3.38;2.35;;;;;;;;;;5028907;28;20039;-65
2021/07/04 13:41:47;;;;;;;3.42;2.20;;;;;;;;;;5031923;28;20052;-64
2021/07/04 13:44:12;;;;;;;4.45;2.72;;;;;;;;;;5027680;28;20037;-64
2021/07/04 13:46:38;;;;;;;2.90;2.00;;;;;;;;;;5033992;28;20017;-65
2021/07/04 13:49:03;;;;;;;3.40;2.75;;;;;;;;;;5023871;28;20327;-64
2021/07/04 13:51:28;;;;;;;4.55;3.40;;;;;;;;;;5029386;28;20512;-64
2021/07/04 13:53:53;;;;;;;4.80;3.20;;;;;;;;;;5027275;28;20481;-64
2021/07/04 13:56:18;;;;;;;5.20;2.73;;;;;;;;;;5037898;28;20374;-64
2021/07/04 13:58:44;;;;;;;3.13;2.20;;;;;;;;;;5025173;28;20632;-63
2021/07/04 14:01:09;;;;;;;3.28;2.00;;;;;;;;;;5037486;28;20354;-64
2021/07/04 14:03:34;;;;;;;3.95;2.70;;;;;;;;;;5026174;28;20041;-65
2021/07/04 14:05:59;;;;;;;4.10;2.92;;;;;;;;;;5036117;28;20112;-64
2021/07/04 14:08:24;;;;;;;2.90;2.20;;;;;;;;;;5022656;28;20072;-65
2021/07/04 14:10:50;;;;;;;4.00;2.85;;;;;;;;;;5035380;28;20829;-64
2021/07/04 14:13:15;;;;;;;3.65;2.50;;;;;;;;;;5028571;28;20053;-64
2021/07/04 14:15:40;;;;;;;2.70;2.10;;;;;;;;;;5029174;28;20110;-64
2021/07/04 14:18:05;;;;;;;3.00;2.22;;;;;;;;;;5027902;28;20021;-64
2021/07/04 14:20:32;;;;;;;4.10;2.20;;;;;;;;;;5034472;28;20027;-64
2021/07/04 14:22:57;;;;;;;3.60;2.28;;;;;;;;;;5032432;28;20327;-64
2021/07/04 14:25:24;;;;;;;3.05;2.25;;;;;;;;;;5032739;28;20053;-65
2021/07/04 14:27:49;;;;;;;3.47;2.50;;;;;;;;;;5030757;28;20021;-64
2021/07/04 14:30:16;;;;;;;3.13;2.20;;;;;;;;;;5042606;28;20028;-65
2021/07/04 14:32:41;;;;;;;3.30;2.28;;;;;;;;;;5029469;28;20139;-65
2021/07/04 14:35:07;;;;;;;3.00;2.13;;;;;;;;;;5036463;28;20112;-66
2021/07/04 14:37:32;;;;;;;3.65;2.30;;;;;;;;;;5031325;28;20284;-64